Time;durP1;ratioP1;P1;durP2;ratioP2;P2;SDS_P1;SDS_P2;PMS_P1;PMS_P2;Temp;Humidity;BMP_temperature;BMP_pressure;BME280_temperature;BME280_humidity;BME280_pressure;Samples;Min_cycle;Max_cycle;Signal;HPM_P1;HPM_P2
2023/06/14 00:00:40;;;;;;;8.00;5.72;;;20.50;81.00;;;;;;5035118;28;20059;-83
2023/06/14 00:03:08;;;;;;;8.68;5.60;;;20.50;81.10;;;;;;5034693;28;20029;-84
2023/06/14 00:05:38;;;;;;;7.57;5.95;;;20.50;81.00;;;;;;5034582;28;20490;-84
2023/06/14 00:08:07;;;;;;;8.63;6.28;;;20.40;81.00;;;;;;5034210;28;20029;-84
2023/06/14 00:10:35;;;;;;;8.30;6.20;;;20.50;81.10;;;;;;5034502;28;20052;-84
2023/06/14 00:13:01;;;;;;;8.65;5.20;;;20.40;81.10;;;;;;5034007;28;20085;-82
2023/06/14 00:15:26;;;;;;;7.22;5.35;;;20.40;81.10;;;;;;5034371;28;20486;-82
2023/06/14 00:17:52;;;;;;;7.93;6.10;;;20.40;81.20;;;;;;5033373;28;20053;-82
2023/06/14 00:20:17;;;;;;;7.57;5.75;;;20.40;81.10;;;;;;5033589;28;20029;-83
2023/06/14 00:22:43;;;;;;;7.65;5.82;;;20.40;81.20;;;;;;5034651;28;20025;-82
2023/06/14 00:25:08;;;;;;;7.63;5.80;;;20.50;81.20;;;;;;5032339;28;20040;-83
2023/06/14 00:27:34;;;;;;;7.90;5.88;;;20.50;81.20;;;;;;5032742;28;20025;-82
2023/06/14 00:29:59;;;;;;;8.55;5.97;;;20.40;81.20;;;;;;5035036;28;20021;-84
2023/06/14 00:32:25;;;;;;;6.90;5.25;;;20.40;81.20;;;;;;5032841;28;20582;-83
2023/06/14 00:34:51;;;;;;;8.07;5.10;;;20.40;81.20;;;;;;5033380;28;20025;-83
2023/06/14 00:37:17;;;;;;;8.55;6.00;;;20.50;81.20;;;;;;5032448;28;20038;-84
2023/06/14 00:39:42;;;;;;;7.28;5.35;;;20.50;81.10;;;;;;5032697;28;20064;-84
2023/06/14 00:42:08;;;;;;;7.07;5.20;;;20.50;81.00;;;;;;5039813;28;20042;-86
2023/06/14 00:44:33;;;;;;;7.32;4.82;;;20.60;81.00;;;;;;5053041;28;20455;-86
2023/06/14 00:46:59;;;;;;;7.28;5.05;;;20.50;80.90;;;;;;5050959;28;20085;-87
2023/06/14 00:49:24;;;;;;;6.55;4.70;;;20.50;80.90;;;;;;5050555;28;20532;-85
2023/06/14 00:51:51;;;;;;;6.85;5.18;;;20.60;80.80;;;;;;5049937;28;20026;-86
2023/06/14 00:54:16;;;;;;;6.75;5.05;;;20.60;80.80;;;;;;5050530;28;20081;-83
2023/06/14 00:56:43;;;;;;;7.32;5.05;;;20.60;80.80;;;;;;5048863;28;20028;-85
2023/06/14 00:59:11;;;;;;;6.78;5.05;;;20.60;80.80;;;;;;5048566;28;20033;-85
2023/06/14 01:01:36;;;;;;;6.97;4.85;;;20.50;80.80;;;;;;5047268;28;20025;-86
2023/06/14 01:04:03;;;;;;;7.30;5.50;;;20.50;80.90;;;;;;5049012;28;20033;-85
2023/06/14 01:06:42;;;;;;;7.22;5.53;;;20.50;80.90;;;;;;5048113;28;20024;-85
2023/06/14 01:09:29;;;;;;;6.70;4.82;;;20.50;81.00;;;;;;5047996;28;20044;-85
2023/06/14 01:12:11;;;;;;;7.25;5.30;;;20.50;81.10;;;;;;5045643;28;20026;-84
2023/06/14 01:14:38;;;;;;;6.60;4.78;;;20.50;81.30;;;;;;5047186;28;20041;-85
2023/06/14 01:17:04;;;;;;;7.40;5.65;;;20.50;81.30;;;;;;5044493;28;20026;-84
2023/06/14 01:19:31;;;;;;;6.55;4.95;;;20.40;81.20;;;;;;5044029;28;20030;-84
2023/06/14 01:22:00;;;;;;;7.15;5.53;;;20.40;81.30;;;;;;5046061;28;20048;-83
2023/06/14 01:24:31;;;;;;;7.57;5.68;;;20.40;81.30;;;;;;5042993;28;20029;-84
2023/06/14 01:26:59;;;;;;;7.00;5.28;;;20.40;81.30;;;;;;5042525;28;20036;-84
2023/06/14 01:29:27;;;;;;;6.90;5.07;;;20.40;81.40;;;;;;5042396;28;20017;-84
2023/06/14 01:31:54;;;;;;;6.78;4.63;;;20.40;81.30;;;;;;5043705;28;20089;-84
2023/06/14 01:34:20;;;;;;;6.70;5.00;;;20.40;81.40;;;;;;5050582;28;20053;-86
2023/06/14 01:36:46;;;;;;;7.20;5.20;;;20.40;81.40;;;;;;5054157;28;20037;-85
2023/06/14 01:39:15;;;;;;;7.35;5.30;;;20.40;81.40;;;;;;5054756;28;20478;-88
2023/06/14 01:41:42;;;;;;;7.72;5.47;;;20.40;81.50;;;;;;5055205;28;20038;-85
2023/06/14 01:44:08;;;;;;;6.97;5.50;;;20.40;81.40;;;;;;5053187;28;20021;-86
2023/06/14 01:46:35;;;;;;;7.22;5.38;;;20.40;81.50;;;;;;5054067;28;20425;-87
2023/06/14 01:49:01;;;;;;;7.40;5.60;;;20.40;81.50;;;;;;5052156;28;20425;-85
2023/06/14 01:51:26;;;;;;;6.85;5.10;;;20.40;81.50;;;;;;5051399;28;20080;-85
2023/06/14 01:53:52;;;;;;;7.28;5.65;;;20.40;81.50;;;;;;5051017;28;20498;-86
2023/06/14 01:56:18;;;;;;;7.65;5.65;;;20.40;81.50;;;;;;5050212;28;20008;-88
2023/06/14 01:58:43;;;;;;;7.40;5.65;;;20.40;81.50;;;;;;5049898;28;20086;-86
2023/06/14 02:01:09;;;;;;;6.80;4.70;;;20.40;81.50;;;;;;5048555;28;20021;-87
2023/06/14 02:03:34;;;;;;;6.50;4.90;;;20.40;81.50;;;;;;5048824;28;20083;-85
2023/06/14 02:06:00;;;;;;;6.20;4.68;;;20.40;81.50;;;;;;5050157;28;20029;-86
2023/06/14 02:08:26;;;;;;;6.55;4.53;;;20.40;81.40;;;;;;5047680;28;20089;-84
2023/06/14 02:10:51;;;;;;;6.32;4.50;;;20.50;81.40;;;;;;5047179;28;20105;-84
2023/06/14 02:13:17;;;;;;;6.45;4.28;;;20.50;81.30;;;;;;5045705;28;20103;-84
2023/06/14 02:15:43;;;;;;;6.20;4.43;;;20.50;81.20;;;;;;5046387;28;20024;-86
2023/06/14 02:18:09;;;;;;;7.20;4.68;;;20.50;81.20;;;;;;5045129;28;20029;-84
2023/06/14 02:20:35;;;;;;;6.45;4.72;;;20.50;81.10;;;;;;5046908;28;20045;-85
2023/06/14 02:23:01;;;;;;;8.00;4.90;;;20.50;81.10;;;;;;5044402;28;20013;-84
2023/06/14 02:25:29;;;;;;;6.28;4.20;;;20.50;81.10;;;;;;5043598;28;20029;-86
2023/06/14 02:27:55;;;;;;;6.68;4.95;;;20.50;81.10;;;;;;5042947;28;20032;-86
2023/06/14 02:30:21;;;;;;;5.75;4.20;;;20.50;81.10;;;;;;5042318;28;20017;-87
2023/06/14 02:32:48;;;;;;;6.28;4.57;;;20.50;81.20;;;;;;5045393;28;20516;-86
2023/06/14 02:35:13;;;;;;;6.20;4.68;;;20.50;81.20;;;;;;5042843;28;20026;-87
2023/06/14 02:37:39;;;;;;;6.90;5.05;;;20.40;81.20;;;;;;5039402;28;20085;-88
2023/06/14 02:40:06;;;;;;;6.22;4.50;;;20.40;81.30;;;;;;5040862;28;20033;-87
2023/06/14 02:42:31;;;;;;;6.85;4.82;;;20.40;81.40;;;;;;5041457;28;20225;-87
2023/06/14 02:44:57;;;;;;;6.05;4.13;;;20.40;81.50;;;;;;5040815;28;20022;-87
2023/06/14 02:47:22;;;;;;;6.57;4.90;;;20.40;81.50;;;;;;5041453;28;20029;-87
2023/06/14 02:49:48;;;;;;;6.15;4.65;;;20.40;81.50;;;;;;5042134;28;20363;-87
2023/06/14 02:52:13;;;;;;;6.35;4.53;;;20.40;81.50;;;;;;5040487;28;20022;-84
2023/06/14 02:54:40;;;;;;;6.47;4.88;;;20.30;81.40;;;;;;5039915;28;20018;-84
2023/06/14 02:57:07;;;;;;;6.88;4.57;;;20.30;81.40;;;;;;5038565;28;20148;-84
2023/06/14 02:59:33;;;;;;;6.18;4.55;;;20.40;81.70;;;;;;5038882;28;20029;-84
2023/06/14 03:01:58;;;;;;;6.68;4.47;;;20.30;81.40;;;;;;5040782;28;20033;-84
2023/06/14 03:04:25;;;;;;;6.07;4.45;;;20.30;81.50;;;;;;5038061;28;20021;-84
2023/06/14 03:06:51;;;;;;;6.95;4.65;;;20.30;81.50;;;;;;5037724;28;20032;-85
2023/06/14 03:09:17;;;;;;;5.80;4.15;;;20.30;81.60;;;;;;5040219;28;20041;-84
2023/06/14 03:11:42;;;;;;;5.93;4.22;;;20.30;81.60;;;;;;5036747;28;20482;-84
2023/06/14 03:14:08;;;;;;;6.75;4.07;;;20.30;81.70;;;;;;5037283;28;20049;-83
2023/06/14 03:16:34;;;;;;;7.05;4.60;;;20.30;81.70;;;;;;5038623;28;20068;-83
2023/06/14 03:18:59;;;;;;;6.35;4.30;;;20.30;81.60;;;;;;5037818;28;20036;-83
2023/06/14 03:21:25;;;;;;;6.15;4.53;;;20.30;81.70;;;;;;5037068;28;20029;-84
2023/06/14 03:23:52;;;;;;;6.20;4.25;;;20.30;81.70;;;;;;5035455;28;20066;-84
2023/06/14 03:26:18;;;;;;;6.70;4.80;;;20.30;81.70;;;;;;5032910;28;20029;-85
2023/06/14 03:28:45;;;;;;;6.40;4.60;;;20.30;81.70;;;;;;5030584;28;20029;-85
2023/06/14 03:31:11;;;;;;;6.32;4.47;;;20.30;81.60;;;;;;5029026;28;20088;-83
2023/06/14 03:33:37;;;;;;;5.82;4.03;;;20.30;81.50;;;;;;5032638;28;20022;-84
2023/06/14 03:36:03;;;;;;;6.40;4.53;;;20.40;81.60;;;;;;5032826;28;20043;-83
2023/06/14 03:38:29;;;;;;;6.40;4.75;;;20.40;81.60;;;;;;5033535;28;20080;-85
2023/06/14 03:41:10;;;;;;;5.97;4.10;;;20.40;81.50;;;;;;5033185;28;20413;-83
2023/06/14 03:43:46;;;;;;;;;;;;;;;;;;;;;
2023/06/14 03:46:16;;;;;;;6.10;4.05;;;21.00;81.70;;;;;;5034908;28;20018;-83
2023/06/14 03:48:47;;;;;;;6.25;4.38;;;20.40;81.20;;;;;;5033265;28;20022;-83
2023/06/14 03:51:13;;;;;;;6.20;4.35;;;19.90;80.80;;;;;;5034201;28;20052;-85
2023/06/14 03:53:47;;;;;;;5.70;4.10;;;20.40;81.10;;;;;;5033419;28;20464;-85
2023/06/14 03:56:53;;;;;;;6.72;4.35;;;20.50;81.20;;;;;;5032747;28;20088;-86
2023/06/14 03:59:26;;;;;;;5.40;3.80;;;20.50;81.20;;;;;;5031351;28;20025;-85
2023/06/14 04:02:28;;;;;;;;;;;;;;;;;;;;;
2023/06/14 04:04:58;;;;;;;7.20;4.63;;;20.40;81.20;;;;;;5034486;28;20485;-83
2023/06/14 04:07:24;;;;;;;6.80;4.53;;;20.40;81.30;;;;;;5036259;28;20040;-86
2023/06/14 04:09:53;;;;;;;6.95;4.50;;;20.40;81.30;;;;;;5034707;28;20029;-85
2023/06/14 04:12:18;;;;;;;6.13;4.50;;;20.20;81.40;;;;;;5033869;28;20025;-84
2023/06/14 04:14:47;;;;;;;6.40;4.30;;;20.60;81.60;;;;;;5039617;28;20104;-83
2023/06/14 04:17:17;;;;;;;5.40;3.80;;;19.90;81.30;;;;;;5039726;28;20425;-86
2023/06/14 04:20:02;;;;;;;5.93;4.28;;;20.30;81.50;;;;;;5045597;28;20548;-85
2023/06/14 04:22:30;;;;;;;6.38;4.53;;;20.30;81.50;;;;;;5044658;28;20029;-86
2023/06/14 04:24:59;;;;;;;5.90;4.18;;;22.00;82.50;;;;;;5040856;28;20091;-85
2023/06/14 04:27:38;;;;;;;6.75;4.50;;;20.40;81.60;;;;;;5041586;28;20052;-87
2023/06/14 04:30:04;;;;;;;6.15;4.20;;;20.40;81.60;;;;;;5043121;28;20056;-85
2023/06/14 04:32:33;;;;;;;6.60;4.35;;;20.30;81.50;;;;;;5044005;28;20035;-86
2023/06/14 04:35:01;;;;;;;6.03;4.20;;;20.20;81.50;;;;;;5043359;28;20026;-87
2023/06/14 04:37:33;;;;;;;6.05;4.40;;;20.30;82.00;;;;;;5038210;28;20141;-86
2023/06/14 04:40:16;;;;;;;5.68;3.92;;;20.30;81.60;;;;;;5037909;28;20041;-86
2023/06/14 04:42:46;;;;;;;6.90;4.97;;;20.30;81.50;;;;;;5041160;28;20037;-86
2023/06/14 04:45:12;;;;;;;6.07;4.47;;;20.00;81.40;;;;;;5040536;28;20034;-85
2023/06/14 04:47:41;;;;;;;6.88;4.45;;;20.60;81.70;;;;;;5031802;28;20096;-85
2023/06/14 04:50:08;;;;;;;6.43;4.40;;;19.80;81.30;;;;;;5040349;28;20092;-86
2023/06/14 04:52:36;;;;;;;6.05;4.20;;;20.30;81.50;;;;;;5039795;28;20440;-86
2023/06/14 04:55:05;;;;;;;6.13;4.25;;;21.40;82.20;;;;;;5040144;28;20495;-86
2023/06/14 04:57:31;;;;;;;6.82;4.90;;;20.30;81.50;;;;;;5037912;28;20045;-85
2023/06/14 05:00:05;;;;;;;6.05;4.38;;;20.10;81.40;;;;;;5038833;28;20038;-84
2023/06/14 05:02:35;;;;;;;6.20;4.18;;;19.80;81.20;;;;;;5043551;28;20030;-86
2023/06/14 05:05:57;;;;;;;5.60;3.70;;;20.40;81.50;;;;;;5043967;28;20068;-88
2023/06/14 05:08:45;;;;;;;6.03;3.97;;;20.40;81.50;;;;;;5039733;28;20037;-87
2023/06/14 05:11:13;;;;;;;5.53;3.67;;;20.40;81.40;;;;;;5044880;28;20025;-87
2023/06/14 05:14:39;;;;;;;;;;;;;;;;;;;;;
2023/06/14 05:17:07;;;;;;;5.32;3.60;;;20.40;81.20;;;;;;4999769;28;20035;-84
2023/06/14 05:19:32;;;;;;;6.85;4.95;;;20.50;81.10;;;;;;4994197;28;20097;-86
2023/06/14 05:21:58;;;;;;;6.40;4.45;;;20.50;81.00;;;;;;5044557;28;20021;-85
2023/06/14 05:24:23;;;;;;;7.43;4.50;;;20.50;81.00;;;;;;5051948;28;20510;-86
2023/06/14 05:26:49;;;;;;;5.38;3.60;;;20.50;80.90;;;;;;5050723;28;20024;-86
2023/06/14 05:29:14;;;;;;;5.95;4.10;;;20.50;80.80;;;;;;5050173;28;20085;-85
2023/06/14 05:31:40;;;;;;;5.90;3.95;;;20.50;80.60;;;;;;5050132;28;20021;-87
2023/06/14 05:34:06;;;;;;;5.75;4.10;;;20.50;80.60;;;;;;5049197;28;20033;-87
2023/06/14 05:36:31;;;;;;;6.90;4.68;;;20.40;80.60;;;;;;5048753;28;20041;-85
2023/06/14 05:39:00;;;;;;;6.65;4.22;;;20.40;80.60;;;;;;5048088;28;20022;-85
2023/06/14 05:41:26;;;;;;;6.60;4.35;;;20.40;80.60;;;;;;5048076;28;20080;-85
2023/06/14 05:43:54;;;;;;;6.25;4.28;;;20.40;80.70;;;;;;5046920;28;20092;-84
2023/06/14 05:46:22;;;;;;;6.45;3.88;;;20.40;80.80;;;;;;5045876;28;20402;-87
2023/06/14 05:48:48;;;;;;;6.22;4.18;;;20.40;80.80;;;;;;5046936;28;20025;-87
2023/06/14 05:51:14;;;;;;;6.75;4.60;;;20.40;80.80;;;;;;5044825;28;20108;-84
2023/06/14 05:53:40;;;;;;;6.60;4.25;;;20.40;80.80;;;;;;5046924;28;20112;-87
2023/06/14 05:56:05;;;;;;;6.35;4.10;;;20.40;80.80;;;;;;5044180;28;20036;-86
2023/06/14 05:58:31;;;;;;;5.95;3.92;;;20.40;80.80;;;;;;5043100;28;20029;-85
2023/06/14 06:00:57;;;;;;;7.10;4.05;;;20.40;80.80;;;;;;5043184;28;20072;-86
2023/06/14 06:03:23;;;;;;;5.60;4.00;;;20.40;80.80;;;;;;5042549;28;20025;-85
2023/06/14 06:05:48;;;;;;;7.00;3.75;;;20.40;80.80;;;;;;5043195;28;20030;-84
2023/06/14 06:08:14;;;;;;;5.95;3.92;;;20.40;80.90;;;;;;5042156;28;20075;-85
2023/06/14 06:10:39;;;;;;;6.07;3.45;;;20.40;80.90;;;;;;5042873;28;20093;-85
2023/06/14 06:13:05;;;;;;;6.15;3.47;;;20.40;80.90;;;;;;5041257;28;20544;-85
2023/06/14 06:15:30;;;;;;;6.22;3.88;;;20.40;80.90;;;;;;5040693;28;20014;-84
2023/06/14 06:17:56;;;;;;;5.30;3.58;;;20.40;80.90;;;;;;5039068;28;20109;-85
2023/06/14 06:20:27;;;;;;;5.65;3.72;;;20.40;80.80;;;;;;5040211;28;20032;-85
2023/06/14 06:22:53;;;;;;;7.25;4.35;;;20.40;80.80;;;;;;5040880;28;20021;-84
2023/06/14 06:25:19;;;;;;;7.40;4.25;;;20.50;80.70;;;;;;5039728;28;20117;-85
2023/06/14 06:27:44;;;;;;;5.80;3.53;;;20.50;80.70;;;;;;5038923;28;20018;-84
2023/06/14 06:30:10;;;;;;;5.50;3.70;;;20.40;80.60;;;;;;5039611;28;20029;-84
2023/06/14 06:32:36;;;;;;;5.57;3.42;;;20.50;80.80;;;;;;5039254;28;20032;-85
2023/06/14 06:35:01;;;;;;;5.90;3.83;;;20.50;80.50;;;;;;5038348;28;20485;-85
2023/06/14 06:37:27;;;;;;;5.78;3.90;;;20.50;80.20;;;;;;5038351;28;20033;-85
2023/06/14 06:39:52;;;;;;;6.13;3.90;;;20.50;80.00;;;;;;5037956;28;20029;-85
2023/06/14 06:42:18;;;;;;;5.38;3.40;;;20.60;79.90;;;;;;5037431;28;20033;-85
2023/06/14 06:44:43;;;;;;;6.18;3.92;;;20.60;79.80;;;;;;5037838;28;20022;-84
2023/06/14 06:47:11;;;;;;;5.15;3.42;;;20.60;79.80;;;;;;5036461;28;20022;-85
2023/06/14 06:49:36;;;;;;;5.50;3.70;;;20.70;79.60;;;;;;5039702;28;20036;-85
2023/06/14 06:52:04;;;;;;;5.63;3.53;;;20.70;79.40;;;;;;5036509;28;20104;-85
2023/06/14 06:54:29;;;;;;;5.53;3.70;;;20.70;79.70;;;;;;5036333;28;20033;-85
2023/06/14 06:56:55;;;;;;;5.25;3.67;;;20.70;79.60;;;;;;5035473;28;20029;-86
2023/06/14 06:59:20;;;;;;;5.22;3.35;;;20.70;79.70;;;;;;5035520;28;20521;-85
2023/06/14 07:01:46;;;;;;;5.30;3.70;;;20.70;79.80;;;;;;5036942;28;20037;-85
2023/06/14 07:04:12;;;;;;;5.28;3.60;;;20.70;79.80;;;;;;5037386;28;20029;-85
2023/06/14 07:06:38;;;;;;;5.13;3.60;;;20.70;80.10;;;;;;5037235;28;20033;-85
2023/06/14 07:09:07;;;;;;;6.30;4.10;;;20.70;79.90;;;;;;5034713;28;20379;-84
2023/06/14 07:11:33;;;;;;;5.65;3.95;;;20.70;80.00;;;;;;5036914;28;20018;-84
2023/06/14 07:13:59;;;;;;;5.68;3.97;;;20.70;79.80;;;;;;5034280;28;20033;-85
2023/06/14 07:16:25;;;;;;;5.70;3.90;;;20.70;80.00;;;;;;5034682;28;20033;-85
2023/06/14 07:18:51;;;;;;;6.00;4.10;;;20.70;80.00;;;;;;5036077;28;20028;-84
2023/06/14 07:21:16;;;;;;;5.85;3.97;;;20.70;80.00;;;;;;5033730;28;20026;-85
2023/06/14 07:23:42;;;;;;;6.25;4.00;;;20.70;80.00;;;;;;5033641;28;20076;-84
2023/06/14 07:26:07;;;;;;;5.90;3.90;;;20.70;80.00;;;;;;5033973;28;20052;-84
2023/06/14 07:28:33;;;;;;;6.25;3.92;;;20.70;80.00;;;;;;5033069;28;20080;-84
2023/06/14 07:30:58;;;;;;;5.13;3.50;;;20.70;79.90;;;;;;5033192;28;20018;-85
2023/06/14 07:33:24;;;;;;;5.50;4.03;;;20.70;79.80;;;;;;5034486;28;20022;-84
2023/06/14 07:35:50;;;;;;;5.53;3.70;;;20.80;79.90;;;;;;5035606;28;20481;-85
2023/06/14 07:38:15;;;;;;;5.30;3.60;;;20.80;79.80;;;;;;5033480;28;20445;-87
2023/06/14 07:40:41;;;;;;;6.28;3.67;;;20.80;79.80;;;;;;5053500;28;20100;-86
2023/06/14 07:43:06;;;;;;;5.72;3.90;;;20.80;79.80;;;;;;5052926;28;20025;-86
2023/06/14 07:45:32;;;;;;;5.40;3.80;;;20.80;79.80;;;;;;5052576;28;20033;-87
2023/06/14 07:47:57;;;;;;;5.20;3.33;;;20.80;79.70;;;;;;5052187;28;20052;-87
2023/06/14 07:50:23;;;;;;;5.85;3.50;;;20.80;79.70;;;;;;5051415;28;20022;-88
2023/06/14 07:52:48;;;;;;;5.68;3.60;;;20.80;79.70;;;;;;5051528;28;20029;-87
2023/06/14 07:55:15;;;;;;;5.57;3.70;;;20.90;79.60;;;;;;5051749;28;20025;-87
2023/06/14 07:57:40;;;;;;;5.72;4.00;;;20.90;79.60;;;;;;5049587;28;20640;-85
2023/06/14 08:00:06;;;;;;;5.68;3.60;;;20.90;79.60;;;;;;5050748;28;20080;-85
2023/06/14 08:02:32;;;;;;;5.65;3.78;;;20.90;79.50;;;;;;5048114;28;20385;-86
2023/06/14 08:04:58;;;;;;;6.05;3.80;;;21.00;79.40;;;;;;5047885;28;20029;-84
2023/06/14 08:07:24;;;;;;;5.78;3.95;;;21.00;79.20;;;;;;5048204;28;20045;-87
2023/06/14 08:09:49;;;;;;;5.85;3.70;;;21.00;79.10;;;;;;5046534;28;20021;-86
2023/06/14 08:12:15;;;;;;;5.40;3.72;;;21.10;79.00;;;;;;5047658;28;20211;-87
2023/06/14 08:14:42;;;;;;;5.70;3.67;;;21.00;78.90;;;;;;5045575;28;20382;-85
2023/06/14 08:17:08;;;;;;;6.07;3.90;;;21.10;78.80;;;;;;5044647;28;20048;-86
2023/06/14 08:19:33;;;;;;;5.65;3.65;;;21.10;78.70;;;;;;5044156;28;20025;-85
2023/06/14 08:21:59;;;;;;;5.93;3.80;;;21.10;78.70;;;;;;5042959;28;20025;-84
2023/06/14 08:24:26;;;;;;;5.70;3.85;;;21.20;78.70;;;;;;5041765;28;20021;-85
2023/06/14 08:26:56;;;;;;;6.00;3.83;;;21.20;78.70;;;;;;5044949;28;20029;-84
2023/06/14 08:29:22;;;;;;;5.70;4.03;;;21.20;78.60;;;;;;5049186;28;20020;-86
2023/06/14 08:31:47;;;;;;;5.13;3.53;;;21.20;78.50;;;;;;5052965;28;20025;-87
2023/06/14 08:34:13;;;;;;;5.55;3.60;;;21.20;78.50;;;;;;5051738;28;20041;-87
2023/06/14 08:36:38;;;;;;;5.95;4.05;;;21.20;78.50;;;;;;5052619;28;20060;-85
2023/06/14 08:39:04;;;;;;;5.75;3.80;;;21.10;78.60;;;;;;5050838;28;20029;-87
2023/06/14 08:41:29;;;;;;;5.55;3.75;;;21.10;78.70;;;;;;5051062;28;20093;-87
2023/06/14 08:43:56;;;;;;;5.22;3.47;;;21.20;78.80;;;;;;5049675;28;20055;-85
2023/06/14 08:46:24;;;;;;;6.00;3.90;;;21.20;78.80;;;;;;5050662;28;20498;-86
2023/06/14 08:48:52;;;;;;;5.30;3.70;;;21.20;78.80;;;;;;5054446;28;20049;-86
2023/06/14 08:51:21;;;;;;;5.93;4.05;;;21.20;78.70;;;;;;5051765;28;20116;-87
2023/06/14 08:53:52;;;;;;;5.85;3.90;;;21.20;78.70;;;;;;5052936;28;20482;-86
2023/06/14 08:56:20;;;;;;;6.10;4.00;;;21.20;78.70;;;;;;5050934;28;20025;-84
2023/06/14 08:58:48;;;;;;;5.85;4.18;;;21.20;78.60;;;;;;5050109;28;20764;-84
2023/06/14 09:01:14;;;;;;;5.28;3.50;;;21.20;78.60;;;;;;5049174;28;20068;-85
2023/06/14 09:03:41;;;;;;;5.32;3.72;;;21.20;78.60;;;;;;5050096;28;20028;-85
2023/06/14 09:06:08;;;;;;;5.07;3.72;;;21.30;78.60;;;;;;5046892;28;20517;-86
2023/06/14 09:08:35;;;;;;;5.55;3.70;;;21.30;78.50;;;;;;5047765;28;20056;-84
2023/06/14 09:11:01;;;;;;;5.35;3.65;;;21.30;78.40;;;;;;5046718;28;20101;-85
2023/06/14 09:13:27;;;;;;;5.43;3.67;;;21.30;78.40;;;;;;5048687;28;20391;-85
2023/06/14 09:15:53;;;;;;;5.15;3.60;;;21.30;78.40;;;;;;5046138;28;20118;-86
2023/06/14 09:18:22;;;;;;;5.63;3.65;;;21.30;78.40;;;;;;5047848;28;20029;-85
2023/06/14 09:20:48;;;;;;;5.70;3.63;;;21.30;78.40;;;;;;5047402;28;20389;-84
2023/06/14 09:23:20;;;;;;;5.50;3.70;;;21.30;78.30;;;;;;5047106;28;20121;-84
2023/06/14 09:25:46;;;;;;;5.07;3.38;;;21.30;78.40;;;;;;5044066;28;20029;-84
2023/06/14 09:28:12;;;;;;;5.28;3.47;;;21.40;78.40;;;;;;5043268;28;20083;-84
2023/06/14 09:30:38;;;;;;;5.25;3.65;;;21.40;78.30;;;;;;5043060;28;20021;-85
2023/06/14 09:33:03;;;;;;;5.43;3.65;;;21.40;78.30;;;;;;5042673;28;20052;-84
2023/06/14 09:35:31;;;;;;;4.93;3.45;;;21.40;78.20;;;;;;5042276;28;20025;-84
2023/06/14 09:37:57;;;;;;;5.25;3.42;;;21.50;78.20;;;;;;5041192;28;20021;-85
2023/06/14 09:40:23;;;;;;;5.45;3.75;;;21.50;78.10;;;;;;5041088;28;20043;-85
2023/06/14 09:42:49;;;;;;;5.55;3.58;;;21.50;78.10;;;;;;5044001;28;20048;-85
2023/06/14 09:45:21;;;;;;;4.95;3.20;;;21.50;78.00;;;;;;5043459;28;20490;-86
2023/06/14 09:47:48;;;;;;;;;;;21.50;78.00;;;;;;5040980;28;20026;-85
2023/06/14 09:50:14;;;;;;;5.30;3.60;;;21.50;77.90;;;;;;5039802;28;19905;-85
2023/06/14 09:52:43;;;;;;;5.30;3.50;;;21.50;77.90;;;;;;5038905;28;20022;-85
2023/06/14 09:55:13;;;;;;;5.18;3.53;;;21.60;77.90;;;;;;5039120;28;20021;-84
2023/06/14 09:57:41;;;;;;;5.07;3.40;;;21.60;77.90;;;;;;5041154;28;20030;-84
2023/06/14 10:00:11;;;;;;;4.50;3.10;;;21.60;77.70;;;;;;5040224;28;20028;-84
2023/06/14 10:02:38;;;;;;;4.85;3.25;;;21.60;77.70;;;;;;5038487;28;20036;-85
2023/06/14 10:05:08;;;;;;;4.78;3.38;;;21.50;77.70;;;;;;5039458;28;20056;-84
2023/06/14 10:07:40;;;;;;;4.97;3.47;;;21.50;78.00;;;;;;5040411;28;20026;-84
2023/06/14 10:10:06;;;;;;;5.22;3.13;;;21.50;78.00;;;;;;5039672;28;20375;-85
2023/06/14 10:12:32;;;;;;;4.65;3.10;;;21.50;78.10;;;;;;5038189;28;20489;-84
2023/06/14 10:14:58;;;;;;;4.97;3.30;;;21.50;78.20;;;;;;5039469;28;20129;-85
2023/06/14 10:17:48;;;;;;;4.78;3.20;;;21.50;78.20;;;;;;5036863;28;20026;-84
2023/06/14 10:20:32;;;;;;;4.93;3.22;;;21.50;78.30;;;;;;5036854;28;20044;-85
2023/06/14 10:23:16;;;;;;;4.55;3.03;;;21.50;78.30;;;;;;5036508;28;20036;-84
2023/06/14 10:25:42;;;;;;;5.07;3.15;;;21.50;78.30;;;;;;5035420;28;20026;-84
2023/06/14 10:28:15;;;;;;;5.10;3.30;;;21.50;78.30;;;;;;5035856;28;20397;-85
2023/06/14 10:31:04;;;;;;;4.90;3.38;;;21.50;78.30;;;;;;5037422;28;20041;-85
2023/06/14 10:33:30;;;;;;;4.55;3.08;;;21.50;78.40;;;;;;5037703;28;20083;-84
2023/06/14 10:36:31;;;;;;;4.90;3.20;;;21.50;78.40;;;;;;5035637;28;20103;-84
2023/06/14 10:39:08;;;;;;;4.78;3.28;;;21.50;78.50;;;;;;5014577;28;20040;-84
2023/06/14 10:41:38;;;;;;;4.72;3.17;;;21.50;78.50;;;;;;5037036;28;20116;-85
2023/06/14 10:44:13;;;;;;;4.93;3.22;;;21.40;78.50;;;;;;5034392;28;20052;-84
2023/06/14 10:46:54;;;;;;;5.32;3.20;;;21.50;78.50;;;;;;5036487;28;20037;-84
2023/06/14 10:49:43;;;;;;;4.72;3.10;;;21.50;78.50;;;;;;5034479;28;20025;-84
2023/06/14 10:52:20;;;;;;;4.55;3.10;;;21.50;78.50;;;;;;5034262;28;20143;-84
2023/06/14 10:55:05;;;;;;;5.35;3.50;;;21.50;78.50;;;;;;5034490;28;20045;-84
2023/06/14 10:57:32;;;;;;;4.40;2.85;;;21.50;78.50;;;;;;5034003;28;20124;-84
2023/06/14 10:59:59;;;;;;;4.68;2.90;;;21.50;78.50;;;;;;5035777;28;20029;-84
2023/06/14 11:02:49;;;;;;;4.75;3.05;;;21.50;78.50;;;;;;5040324;28;20025;-86
2023/06/14 11:05:15;;;;;;;4.95;3.00;;;21.50;78.40;;;;;;5055176;28;20052;-87
2023/06/14 11:07:55;;;;;;;5.18;3.20;;;21.60;78.40;;;;;;5054391;28;20048;-87
2023/06/14 11:10:32;;;;;;;4.55;3.00;;;21.60;78.20;;;;;;5052967;28;20017;-87
2023/06/14 11:12:57;;;;;;;5.03;3.20;;;21.60;78.20;;;;;;5052130;28;20020;-87
2023/06/14 11:15:37;;;;;;;5.18;3.20;;;21.60;78.10;;;;;;5051125;28;20387;-87
2023/06/14 11:18:07;;;;;;;4.17;2.97;;;21.60;78.10;;;;;;5050392;28;20028;-86
2023/06/14 11:20:35;;;;;;;5.55;3.40;;;21.60;78.10;;;;;;5050120;28;20017;-85
2023/06/14 11:23:00;;;;;;;4.53;3.03;;;21.60;78.10;;;;;;5050131;28;20026;-87
2023/06/14 11:25:28;;;;;;;4.50;2.90;;;21.60;78.10;;;;;;5049114;28;20494;-85
2023/06/14 11:27:53;;;;;;;4.00;2.72;;;21.50;77.80;;;;;;5048326;28;20387;-85
2023/06/14 11:30:19;;;;;;;4.25;2.95;;;21.60;78.00;;;;;;5047595;28;20017;-85
2023/06/14 11:32:48;;;;;;;4.15;2.70;;;21.50;78.20;;;;;;5048666;28;20025;-86
2023/06/14 11:35:15;;;;;;;5.10;3.17;;;21.50;78.30;;;;;;5048554;28;20014;-85
2023/06/14 11:37:41;;;;;;;4.60;2.92;;;21.50;78.40;;;;;;5047796;28;20025;-85
2023/06/14 11:40:09;;;;;;;4.97;3.10;;;21.50;78.60;;;;;;5044664;28;20033;-84
2023/06/14 11:42:36;;;;;;;5.05;3.05;;;21.40;78.60;;;;;;5045776;28;20028;-84
2023/06/14 11:45:03;;;;;;;4.47;2.80;;;21.40;78.70;;;;;;5044736;28;20219;-85
2023/06/14 11:47:33;;;;;;;4.20;2.60;;;21.40;78.80;;;;;;5045158;28;20374;-84
2023/06/14 11:49:59;;;;;;;4.32;2.88;;;21.40;78.90;;;;;;5042841;28;20076;-85
2023/06/14 11:52:25;;;;;;;4.20;2.80;;;21.40;78.90;;;;;;5049602;28;20025;-86
2023/06/14 11:54:50;;;;;;;5.80;3.17;;;21.40;78.90;;;;;;5053313;28;20026;-85
2023/06/14 11:57:18;;;;;;;4.57;2.90;;;21.40;79.00;;;;;;5052210;28;20029;-85
2023/06/14 11:59:45;;;;;;;4.75;3.20;;;21.40;79.00;;;;;;5052277;28;20488;-86
2023/06/14 12:02:14;;;;;;;4.57;2.80;;;21.40;79.00;;;;;;5051698;28;20033;-86
2023/06/14 12:04:44;;;;;;;4.28;2.80;;;21.40;79.10;;;;;;5052252;28;20053;-86
2023/06/14 12:07:14;;;;;;;4.03;2.72;;;21.40;79.10;;;;;;5049524;28;20033;-84
2023/06/14 12:09:39;;;;;;;4.90;3.15;;;21.40;79.10;;;;;;5051108;28;20557;-85
2023/06/14 12:12:06;;;;;;;4.63;3.03;;;21.30;79.00;;;;;;5049943;28;20029;-85
2023/06/14 12:14:31;;;;;;;4.38;2.70;;;21.40;79.10;;;;;;5049590;28;20018;-86
2023/06/14 12:17:07;;;;;;;3.83;2.70;;;21.30;79.00;;;;;;5048963;28;20371;-86
2023/06/14 12:19:33;;;;;;;5.10;3.20;;;21.30;79.10;;;;;;5046856;28;20029;-84
2023/06/14 12:22:04;;;;;;;5.18;3.10;;;21.30;79.00;;;;;;5045571;28;20029;-86
2023/06/14 12:24:31;;;;;;;4.43;2.88;;;21.30;79.10;;;;;;5047685;28;20100;-85
2023/06/14 12:27:02;;;;;;;4.60;2.97;;;21.30;79.00;;;;;;5044475;28;20021;-85
2023/06/14 12:29:29;;;;;;;4.32;2.85;;;21.40;79.00;;;;;;5043984;28;20068;-85
2023/06/14 12:31:56;;;;;;;3.90;2.63;;;21.40;79.00;;;;;;5043303;28;20116;-85
2023/06/14 12:34:26;;;;;;;3.75;2.65;;;21.40;78.90;;;;;;5043494;28;20046;-86
2023/06/14 12:36:55;;;;;;;4.35;2.70;;;21.40;78.80;;;;;;5042639;28;20036;-86
2023/06/14 12:39:21;;;;;;;4.07;2.80;;;21.40;78.70;;;;;;5042468;28;20039;-85
2023/06/14 12:41:48;;;;;;;4.65;2.95;;;21.40;79.20;;;;;;5042542;28;20093;-85
2023/06/14 12:44:14;;;;;;;4.68;2.70;;;21.40;78.60;;;;;;5042248;28;20032;-84
2023/06/14 12:46:41;;;;;;;4.05;2.70;;;21.40;78.60;;;;;;5040464;28;20025;-85
2023/06/14 12:49:09;;;;;;;4.15;2.53;;;21.40;78.60;;;;;;5041286;28;20367;-84
2023/06/14 12:51:34;;;;;;;4.47;3.05;;;21.40;78.60;;;;;;5040104;28;20067;-85
2023/06/14 12:54:00;;;;;;;4.13;2.65;;;21.40;78.70;;;;;;5040621;28;20022;-84
2023/06/14 12:56:26;;;;;;;5.18;3.20;;;21.40;78.80;;;;;;5039418;28;20029;-85